Time;durP1;ratioP1;P1;durP2;ratioP2;P2;SDS_P1;SDS_P2;PMS_P1;PMS_P2;Temp;Humidity;BMP_temperature;BMP_pressure;BME280_temperature;BME280_humidity;BME280_pressure;Samples;Min_cycle;Max_cycle;Signal;HPM_P1;HPM_P2
2024/01/29 00:00:03;;;;;;;8.20;5.73;;;;;;;1.81;100.00;63103.66;5035678;28;20225;-59
2024/01/29 00:02:30;;;;;;;8.57;5.73;;;;;;;1.86;100.00;63111.59;5053500;28;20217;-56
2024/01/29 00:04:56;;;;;;;10.50;6.30;;;;;;;1.91;100.00;63117.00;5053335;28;20213;-55
2024/01/29 00:07:22;;;;;;;8.13;5.93;;;;;;;2.00;100.00;63126.78;5053368;28;20305;-55
2024/01/29 00:09:47;;;;;;;13.63;6.33;;;;;;;1.89;100.00;63115.38;5035650;28;20249;-58
2024/01/29 00:12:13;;;;;;;10.47;5.80;;;;;;;1.92;100.00;63116.13;5035299;28;20213;-58
2024/01/29 00:14:38;;;;;;;8.67;5.80;;;;;;;2.09;100.00;63137.06;5053308;28;20574;-59
2024/01/29 00:17:07;;;;;;;7.83;5.53;;;;;;;1.94;100.00;63120.25;5053160;28;20221;-59
2024/01/29 00:19:32;;;;;;;9.87;5.90;;;;;;;2.14;100.00;63139.47;5053215;28;20206;-56
2024/01/29 00:21:58;;;;;;;11.03;5.87;;;;;;;1.82;100.00;63107.25;5053012;28;20757;-57
2024/01/29 00:24:24;;;;;;;7.60;5.57;;;;;;;1.94;100.00;63120.25;5052878;28;20578;-60
2024/01/29 00:26:50;;;;;;;10.57;6.70;;;;;;;1.93;100.00;63119.72;5053041;28;20273;-54
2024/01/29 00:29:15;;;;;;;11.23;7.10;;;;;;;1.77;100.00;63101.81;5085802;22;20217;-58
2024/01/29 00:31:41;;;;;;;9.07;5.70;;;;;;;1.89;100.00;63115.38;5053605;28;20735;-58
2024/01/29 00:34:07;;;;;;;10.33;6.03;;;;;;;1.78;100.00;63105.38;5035155;28;20217;-59
2024/01/29 00:36:33;;;;;;;9.53;5.83;;;;;;;1.96;100.00;63122.44;5034210;28;20193;-56
2024/01/29 00:38:58;;;;;;;8.83;5.50;;;;;;;2.00;100.00;63127.28;5052988;28;20194;-61
2024/01/29 00:41:24;;;;;;;10.77;5.50;;;;;;;1.91;100.00;63115.06;5052592;28;20672;-59
2024/01/29 00:43:50;;;;;;;11.53;5.47;;;;;;;1.82;100.00;63104.75;5052678;28;20255;-57
2024/01/29 00:46:15;;;;;;;10.17;5.77;;;;;;;1.78;100.00;63103.44;5034904;28;20181;-54
2024/01/29 00:48:42;;;;;;;8.37;5.70;;;;;;;1.93;100.00;63119.16;5052713;28;20214;-55
2024/01/29 00:51:07;;;;;;;8.43;5.50;;;;;;;1.88;100.00;63114.28;5034772;28;20220;-55
2024/01/29 00:53:40;;;;;;;9.87;5.80;;;;;;;1.87;100.00;63110.19;5034627;28;20304;-55
2024/01/29 00:56:06;;;;;;;9.80;6.33;;;;;;;1.88;100.00;63113.75;5052502;28;20207;-55
2024/01/29 00:58:31;;;;;;;10.60;5.30;;;;;;;1.88;100.00;63111.81;5052404;28;20213;-55
2024/01/29 01:00:57;;;;;;;8.57;5.33;;;;;;;1.97;100.00;63124.06;5034772;28;20197;-56
2024/01/29 01:03:22;;;;;;;11.67;6.57;;;;;;;1.94;100.00;63120.78;5052510;28;20626;-54
2024/01/29 01:05:48;;;;;;;8.80;5.90;;;;;;;1.89;100.00;63114.81;5052611;28;20210;-56
2024/01/29 01:08:14;;;;;;;8.10;5.47;;;;;;;1.75;100.00;63099.66;5052428;28;20290;-58
2024/01/29 01:10:39;;;;;;;10.10;6.00;;;;;;;1.88;100.00;63114.28;5052590;28;20261;-60
2024/01/29 01:13:05;;;;;;;15.90;6.43;;;;;;;1.84;100.00;63107.47;5052582;28;20209;-55
2024/01/29 01:15:31;;;;;;;10.53;5.73;;;;;;;1.79;100.00;63103.97;5052198;28;20689;-58
2024/01/29 01:17:57;;;;;;;8.20;6.40;;;;;;;1.63;100.00;63087.19;5034283;28;20626;-58
2024/01/29 01:20:24;;;;;;;9.60;6.53;;;;;;;1.70;100.00;63094.75;5034432;28;20235;-58
2024/01/29 01:22:50;;;;;;;7.77;5.37;;;;;;;1.70;100.00;63092.28;5052086;28;20300;-57
2024/01/29 01:25:16;;;;;;;9.63;6.97;;;;;;;1.70;100.00;63092.81;5051785;28;20218;-57
2024/01/29 01:27:42;;;;;;;9.03;5.50;;;;;;;1.94;100.00;63120.25;5052060;28;20295;-58
2024/01/29 01:30:08;;;;;;;10.57;5.53;;;;;;;1.86;100.00;63111.59;5051972;28;20251;-62
2024/01/29 01:32:34;;;;;;;8.67;5.70;;;;;;;1.85;100.00;63108.00;5051955;28;20206;-58
2024/01/29 01:35:00;;;;;;;11.07;5.80;;;;;;;1.91;100.00;63117.00;5077739;22;20236;-57
2024/01/29 01:37:25;;;;;;;7.30;5.47;;;;;;;1.83;100.00;63105.84;5064468;28;20209;-59
2024/01/29 01:39:52;;;;;;;7.33;5.10;;;;;;;1.90;100.00;63116.44;5051796;28;20554;-57
2024/01/29 01:42:19;;;;;;;9.20;5.20;;;;;;;1.88;100.00;63113.75;5051948;28;20209;-59
2024/01/29 01:44:47;;;;;;;9.87;5.90;;;;;;;1.78;100.00;63105.91;5034130;28;20248;-58
2024/01/29 01:47:13;;;;;;;7.73;5.40;;;;;;;1.91;100.00;63119.47;5032691;28;20216;-59
2024/01/29 01:49:39;;;;;;;9.30;5.63;;;;;;;2.10;100.00;63135.13;5052029;28;20194;-59
2024/01/29 01:52:06;;;;;;;9.50;5.77;;;;;;;1.93;100.00;63121.66;5051656;28;20208;-57
2024/01/29 01:54:33;;;;;;;10.03;5.57;;;;;;;1.90;100.00;63116.44;5076761;22;20311;-58
2024/01/29 01:57:00;;;;;;;10.80;5.70;;;;;;;1.82;100.00;63107.25;5067994;28;20201;-59
2024/01/29 01:59:25;;;;;;;9.20;6.00;;;;;;;2.01;100.00;63125.38;5033999;28;20193;-58
2024/01/29 02:01:52;;;;;;;11.33;6.07;;;;;;;2.16;100.00;63141.66;5050999;28;20193;-62
2024/01/29 02:04:18;;;;;;;8.57;5.50;;;;;;;2.22;100.00;63150.63;5051607;28;20311;-56
2024/01/29 02:06:44;;;;;;;10.60;5.63;;;;;;;2.50;100.00;63181.53;5033402;28;20218;-57
2024/01/29 02:09:10;;;;;;;8.53;5.40;;;;;;;2.76;100.00;63208.69;5051640;28;20658;-60
2024/01/29 02:11:36;;;;;;;9.93;5.23;;;;;;;2.82;100.00;63215.75;5051422;28;20243;-60
2024/01/29 02:14:02;;;;;;;10.30;5.63;;;;;;;3.03;100.00;63238.56;5051553;28;20244;-60
2024/01/29 02:16:27;;;;;;;7.57;5.10;;;;;;;3.12;100.00;63248.34;5033507;28;20575;-57
2024/01/29 02:18:53;;;;;;;9.27;5.50;;;;;;;3.19;100.00;63255.94;5017036;28;20224;-58
2024/01/29 02:21:18;;;;;;;8.37;4.83;;;;;;;3.22;100.00;63256.72;5033514;28;20195;-57
2024/01/29 02:23:45;;;;;;;7.37;5.20;;;;;;;3.32;100.00;63264.53;5033073;28;20332;-59
2024/01/29 02:26:11;;;;;;;11.40;7.10;;;;;;;3.01;100.00;63233.88;5051228;28;20190;-58
2024/01/29 02:28:37;;;;;;;8.10;5.63;;;;;;;2.79;100.00;63210.00;5033435;28;20297;-57
2024/01/29 02:31:02;;;;;;;7.33;5.00;;;;;;;2.28;100.00;63157.16;5051075;28;20193;-57
2024/01/29 02:33:28;;;;;;;7.80;5.33;;;;;;;2.12;100.00;63139.78;5033323;28;20217;-54
2024/01/29 02:35:54;;;;;;;10.70;5.40;;;;;;;2.58;100.00;63189.72;5051025;28;20193;-56
2024/01/29 02:38:19;;;;;;;8.03;5.23;;;;;;;2.81;100.00;63214.66;5032336;28;20206;-58
2024/01/29 02:40:45;;;;;;;8.43;4.67;;;;;;;3.21;100.00;63258.09;5016748;28;20592;-58
2024/01/29 02:43:10;;;;;;;10.50;6.87;;;;;;;3.29;100.00;63263.78;5050944;28;20206;-57
2024/01/29 02:45:36;;;;;;;17.70;9.70;;;;;;;3.04;100.00;63239.09;5033272;28;20213;-58
2024/01/29 02:48:01;;;;;;;14.00;9.20;;;;;;;2.86;100.00;63215.13;5051193;28;20210;-55
2024/01/29 02:50:29;;;;;;;15.67;8.37;;;;;;;2.87;100.00;63221.19;5050747;28;20240;-62
2024/01/29 02:52:55;;;;;;;17.27;9.10;;;;;;;2.80;100.00;63211.09;5075975;23;20239;-56
2024/01/29 02:55:21;;;;;;;17.17;9.53;;;;;;;2.82;100.00;63213.28;5070788;28;20242;-55
2024/01/29 02:57:47;;;;;;;16.37;9.23;;;;;;;2.80;100.00;63213.59;5071182;28;20247;-56
2024/01/29 03:00:13;;;;;;;15.30;8.90;;;;;;;2.80;100.00;63213.59;5076225;28;20218;-56
2024/01/29 03:02:38;;;;;;;16.23;9.27;;;;;;;2.90;100.00;63221.97;5076208;28;20245;-58
2024/01/29 03:05:07;;;;;;;15.37;9.77;;;;;;;3.06;100.00;63241.28;5077374;28;20709;-58
2024/01/29 03:07:32;;;;;;;14.50;9.03;;;;;;;3.25;100.00;63259.44;5077433;28;20298;-58
2024/01/29 03:09:58;;;;;;;17.57;9.33;;;;;;;3.26;100.00;63260.50;5076079;28;20762;-54
2024/01/29 03:12:23;;;;;;;14.67;9.37;;;;;;;3.33;100.00;63270.59;5077456;28;20219;-60
2024/01/29 03:14:49;;;;;;;16.93;9.20;;;;;;;3.27;100.00;63264.63;5077313;28;20679;-58
2024/01/29 03:17:32;;;;;;;16.20;9.20;;;;;;;3.29;100.00;63266.25;5077089;28;20221;-59
2024/01/29 03:19:57;;;;;;;19.00;9.33;;;;;;;3.34;100.00;63271.69;5077373;28;20264;-60
2024/01/29 03:22:23;;;;;;;15.33;8.90;;;;;;;3.30;100.00;63262.34;5075967;28;20270;-60
2024/01/29 03:24:48;;;;;;;13.23;8.87;;;;;;;3.25;100.00;63261.91;5077056;28;20633;-59
2024/01/29 03:27:14;;;;;;;14.03;9.20;;;;;;;3.31;100.00;63268.97;5077230;28;20204;-59
2024/01/29 03:29:39;;;;;;;14.77;8.00;;;;;;;3.39;100.00;63277.13;5075731;28;20228;-59
2024/01/29 03:32:06;;;;;;;12.73;8.80;;;;;;;3.19;100.00;63255.94;5076836;28;20298;-59
2024/01/29 03:34:31;;;;;;;15.93;9.40;;;;;;;3.15;100.00;63246.59;5076937;28;20220;-60
2024/01/29 03:36:57;;;;;;;17.37;9.10;;;;;;;3.14;100.00;63248.00;5076689;28;20714;-55
2024/01/29 03:39:22;;;;;;;13.37;8.77;;;;;;;3.05;100.00;63240.19;5076978;28;20579;-55
2024/01/29 03:41:48;;;;;;;13.20;8.63;;;;;;;3.17;100.00;63253.22;5076986;28;20185;-55
2024/01/29 03:44:15;;;;;;;13.73;8.73;;;;;;;3.04;100.00;63239.09;5076882;28;20221;-55
2024/01/29 03:46:41;;;;;;;15.60;8.50;;;;;;;3.09;100.00;63245.06;5077021;28;20238;-59
2024/01/29 03:49:07;;;;;;;14.43;8.83;;;;;;;3.00;100.00;63237.78;5076864;28;20658;-58
2024/01/29 03:51:32;;;;;;;13.50;8.90;;;;;;;3.12;100.00;63248.34;5075582;28;20195;-54
2024/01/29 03:53:58;;;;;;;13.00;8.40;;;;;;;3.20;100.00;63253.97;5076607;28;20192;-55
2024/01/29 03:56:23;;;;;;;14.50;8.47;;;;;;;3.11;100.00;63247.25;5076927;28;20204;-58
2024/01/29 03:58:49;;;;;;;14.17;9.10;;;;;;;3.34;100.00;63271.69;5076854;28;20288;-59
2024/01/29 04:01:27;;;;;;;12.27;8.67;;;;;;;3.39;100.00;63275.16;5076682;28;20555;-57
2024/01/29 04:03:53;;;;;;;12.60;8.40;;;;;;;3.34;100.00;63272.22;5076412;28;20684;-58
2024/01/29 04:06:19;;;;;;;14.60;7.87;;;;;;;3.26;100.00;63263.00;5075303;28;20204;-58
2024/01/29 04:08:45;;;;;;;15.37;8.73;;;;;;;3.17;100.00;63255.72;5076518;28;20241;-58
2024/01/29 04:11:10;;;;;;;13.90;8.63;;;;;;;3.12;100.00;63247.78;5071379;28;20221;-57
2024/01/29 04:13:36;;;;;;;11.73;7.43;;;;;;;3.10;100.00;63245.63;5071824;28;20200;-55
2024/01/29 04:16:02;;;;;;;10.50;6.90;;;;;;;3.08;100.00;63244.00;5055229;28;20680;-57
2024/01/29 04:18:27;;;;;;;8.93;6.87;;;;;;;2.99;100.00;63231.19;5073627;28;20689;-57
2024/01/29 04:20:53;;;;;;;10.07;6.60;;;;;;;2.91;100.00;63225.53;5073058;28;20187;-57
2024/01/29 04:23:19;;;;;;;9.53;6.43;;;;;;;2.90;100.00;63223.91;5073072;28;20737;-59
2024/01/29 04:25:44;;;;;;;7.53;5.63;;;;;;;2.89;100.00;63223.34;5072754;28;20755;-59
2024/01/29 04:28:10;;;;;;;9.47;5.97;;;;;;;3.03;100.00;63238.03;5072995;28;20224;-58
2024/01/29 04:30:35;;;;;;;10.60;5.57;;;;;;;3.08;100.00;63241.50;5072931;28;20184;-57
2024/01/29 04:33:01;;;;;;;8.23;5.47;;;;;;;3.00;100.00;63237.78;5072857;28;20230;-55
2024/01/29 04:35:27;;;;;;;7.60;5.30;;;;;;;3.08;100.00;63245.94;5071614;28;20217;-58
2024/01/29 04:37:52;;;;;;;9.37;5.60;;;;;;;3.21;100.00;63252.59;5073082;28;20298;-56
2024/01/29 04:40:18;;;;;;;8.73;5.70;;;;;;;3.23;100.00;63257.78;5072740;28;20224;-59
2024/01/29 04:42:44;;;;;;;7.57;5.40;;;;;;;3.17;100.00;63253.75;5071592;28;20265;-59
2024/01/29 04:45:10;;;;;;;7.13;5.33;;;;;;;3.12;100.00;63247.78;5072892;28;20196;-58
2024/01/29 04:47:35;;;;;;;7.70;5.63;;;;;;;3.01;100.00;63236.38;5072661;28;20222;-58
2024/01/29 04:50:01;;;;;;;8.87;5.63;;;;;;;2.83;100.00;63214.34;5072784;28;20183;-57
2024/01/29 04:52:26;;;;;;;9.53;6.40;;;;;;;2.95;100.00;63224.34;5073034;28;20212;-58
2024/01/29 04:54:52;;;;;;;11.17;6.33;;;;;;;2.82;100.00;63215.22;5072551;28;20575;-60
2024/01/29 04:57:20;;;;;;;10.30;5.80;;;;;;;2.89;100.00;63222.81;5071354;28;20212;-59
2024/01/29 04:59:45;;;;;;;12.63;6.27;;;;;;;2.78;100.00;63210.88;5072330;28;20189;-60
2024/01/29 05:02:11;;;;;;;9.70;5.90;;;;;;;2.62;100.00;63193.50;5072312;28;20235;-58
2024/01/29 05:04:36;;;;;;;9.93;5.43;;;;;;;2.66;100.00;63198.38;5072346;28;20677;-63
2024/01/29 05:07:02;;;;;;;8.73;5.93;;;;;;;2.73;100.00;63205.97;5072259;28;20239;-58
2024/01/29 05:09:27;;;;;;;9.07;6.40;;;;;;;2.87;100.00;63221.19;5072228;28;20193;-57
2024/01/29 05:11:53;;;;;;;7.37;5.53;;;;;;;2.96;100.00;63230.97;5070917;28;20247;-57
2024/01/29 05:14:19;;;;;;;8.33;5.50;;;;;;;2.79;100.00;63211.97;5071499;28;20185;-59
2024/01/29 05:16:45;;;;;;;11.47;5.93;;;;;;;2.77;100.00;63207.84;5072251;28;20342;-58
2024/01/29 05:19:10;;;;;;;8.23;5.63;;;;;;;2.71;100.00;63206.28;5072130;28;20281;-58
2024/01/29 05:21:36;;;;;;;9.27;5.63;;;;;;;2.89;100.00;63220.34;5070577;28;20199;-57
2024/01/29 05:24:01;;;;;;;9.77;5.73;;;;;;;3.04;100.00;63236.59;5079525;22;20310;-60
2024/01/29 05:26:28;;;;;;;7.47;5.87;;;;;;;3.11;100.00;63247.25;5072130;28;20186;-58
2024/01/29 05:28:53;;;;;;;9.53;5.63;;;;;;;2.98;100.00;63228.16;5054119;28;20231;-59
2024/01/29 05:31:19;;;;;;;7.97;5.17;;;;;;;3.06;100.00;63239.34;5080048;22;20184;-58
2024/01/29 05:33:44;;;;;;;9.00;5.47;;;;;;;3.20;100.00;63253.97;5071359;28;20241;-59
2024/01/29 05:36:10;;;;;;;8.27;5.20;;;;;;;3.32;100.00;63269.50;5079638;22;20293;-55
2024/01/29 05:38:35;;;;;;;7.47;5.40;;;;;;;3.33;100.00;63271.13;5071882;28;20208;-56
2024/01/29 05:41:01;;;;;;;9.17;5.63;;;;;;;3.36;100.00;63274.41;5053625;28;20342;-57
2024/01/29 05:43:27;;;;;;;12.70;6.77;;;;;;;3.47;100.00;63285.28;5071655;28;20289;-56
2024/01/29 05:45:53;;;;;;;8.27;5.90;;;;;;;3.48;100.00;63286.34;5072432;28;20213;-65
2024/01/29 05:48:19;;;;;;;11.27;5.47;;;;;;;3.50;100.00;63286.03;5071830;28;20210;-60
2024/01/29 05:50:44;;;;;;;10.47;6.27;;;;;;;3.53;100.00;63292.34;5053885;28;20193;-60
2024/01/29 05:53:12;;;;;;;11.93;6.10;;;;;;;3.25;100.00;63259.94;5071551;28;20224;-54
2024/01/29 05:55:37;;;;;;;11.23;5.87;;;;;;;3.40;100.00;63281.25;5072137;28;20219;-56
2024/01/29 05:58:03;;;;;;;8.00;6.07;;;;;;;3.39;100.00;63277.13;5053896;28;20338;-58
2024/01/29 06:00:29;;;;;;;10.90;6.77;;;;;;;3.43;100.00;63279.50;5071617;28;20193;-57
2024/01/29 06:02:55;;;;;;;10.03;7.07;;;;;;;3.49;100.00;63289.94;5071460;28;20218;-58
2024/01/29 06:05:20;;;;;;;9.37;5.77;;;;;;;3.54;100.00;63290.38;5053141;28;20729;-58
2024/01/29 06:07:46;;;;;;;10.27;6.70;;;;;;;3.45;100.00;63283.66;5071624;28;20604;-58
2024/01/29 06:10:14;;;;;;;10.27;6.60;;;;;;;3.45;100.00;63283.09;5071331;28;20193;-58
2024/01/29 06:12:39;;;;;;;12.13;7.33;;;;;;;3.25;100.00;63259.94;5071160;28;20211;-55
2024/01/29 06:15:06;;;;;;;12.10;8.53;;;;;;;3.19;100.00;63255.94;5071446;28;20193;-56
2024/01/29 06:17:32;;;;;;;11.33;7.87;;;;;;;3.12;100.00;63248.34;5071323;28;20201;-56
2024/01/29 06:19:57;;;;;;;11.77;7.60;;;;;;;2.83;100.00;63221.28;5071482;28;20281;-56
2024/01/29 06:22:23;;;;;;;12.23;6.97;;;;;;;2.79;100.00;63211.97;5071310;28;20231;-57
2024/01/29 06:24:48;;;;;;;12.13;6.27;;;;;;;2.83;100.00;63214.34;5053021;28;20378;-56
2024/01/29 06:27:14;;;;;;;9.53;5.97;;;;;;;2.70;100.00;63205.22;5053101;28;20219;-55
2024/01/29 06:29:39;;;;;;;9.93;6.20;;;;;;;2.73;100.00;63207.94;5070914;28;20188;-56
2024/01/29 06:32:05;;;;;;;9.33;6.60;;;;;;;2.69;100.00;63198.63;5069463;28;20716;-59
2024/01/29 06:34:33;;;;;;;8.30;6.23;;;;;;;2.78;100.00;63210.88;5050096;28;20211;-57
2024/01/29 06:36:59;;;;;;;10.70;6.00;;;;;;;2.83;100.00;63216.84;5035308;28;20772;-56
2024/01/29 06:39:25;;;;;;;7.43;6.07;;;;;;;2.87;100.00;63218.16;5071241;28;20201;-55
2024/01/29 06:41:50;;;;;;;9.90;6.40;;;;;;;3.07;100.00;63242.91;5071050;28;20185;-55
2024/01/29 06:44:16;;;;;;;8.70;6.43;;;;;;;3.16;100.00;63252.13;5070799;28;20576;-54
2024/01/29 06:46:41;;;;;;;9.70;6.17;;;;;;;3.22;100.00;63259.19;5071027;28;20225;-59
2024/01/29 06:49:07;;;;;;;11.77;6.30;;;;;;;3.30;100.00;63264.84;5071242;28;20251;-58
2024/01/29 06:51:32;;;;;;;8.53;5.67;;;;;;;3.24;100.00;63263.84;5070930;28;20186;-59
2024/01/29 06:54:00;;;;;;;9.37;6.40;;;;;;;3.33;100.00;63270.59;5070812;28;20268;-59
2024/01/29 06:56:26;;;;;;;13.70;7.63;;;;;;;3.46;100.00;63284.72;5070746;28;20575;-58
2024/01/29 06:58:51;;;;;;;10.90;6.83;;;;;;;3.56;100.00;63295.03;5070863;28;20196;-59
2024/01/29 07:01:22;;;;;;;9.50;5.97;;;;;;;3.68;100.00;63308.63;5070912;28;20176;-57
2024/01/29 07:03:49;;;;;;;10.83;6.30;;;;;;;3.43;100.00;63282.00;5070417;28;20271;-55
2024/01/29 07:06:15;;;;;;;9.43;6.30;;;;;;;3.42;100.00;63280.91;5052735;28;20192;-59
2024/01/29 07:08:41;;;;;;;7.80;5.27;;;;;;;3.60;100.00;63296.88;5052388;28;20277;-59
2024/01/29 07:11:06;;;;;;;10.00;5.43;;;;;;;3.64;100.00;63303.72;5052419;28;20191;-55
2024/01/29 07:13:32;;;;;;;7.00;4.67;;;;;;;3.69;99.38;63309.72;5052650;28;20203;-55
2024/01/29 07:15:59;;;;;;;7.53;4.73;;;;;;;3.74;98.98;63312.66;5036264;28;20276;-55
2024/01/29 07:18:24;;;;;;;10.13;6.00;;;;;;;3.81;99.12;63322.75;5070373;28;20223;-56
2024/01/29 07:20:50;;;;;;;9.23;5.30;;;;;;;3.86;96.42;63327.63;5070968;28;20203;-55
2024/01/29 07:23:16;;;;;;;10.43;4.97;;;;;;;3.90;95.99;63327.56;5070421;28;20278;-56
2024/01/29 07:25:41;;;;;;;7.47;4.90;;;;;;;3.82;96.75;63323.28;5052320;28;20640;-56
2024/01/29 07:28:08;;;;;;;8.63;5.40;;;;;;;3.86;97.42;63327.63;5070399;28;20211;-54
2024/01/29 07:30:34;;;;;;;8.30;4.20;;;;;;;3.81;96.05;63319.72;5070424;28;20186;-55
2024/01/29 07:33:01;;;;;;;9.77;4.73;;;;;;;4.01;94.69;63344.50;5052376;28;20289;-58
2024/01/29 07:35:26;;;;;;;9.63;4.87;;;;;;;4.09;93.45;63353.19;5070606;28;20653;-58
2024/01/29 07:37:52;;;;;;;6.77;4.33;;;;;;;3.98;93.20;63338.22;5070264;28;20245;-59
2024/01/29 07:40:22;;;;;;;8.53;5.60;;;;;;;3.87;95.40;63328.72;5070195;28;20694;-60
2024/01/29 07:42:48;;;;;;;8.13;5.40;;;;;;;3.76;95.75;63312.34;5070234;28;20261;-60
2024/01/29 07:45:15;;;;;;;9.83;5.80;;;;;;;3.96;91.39;63341.03;5071019;28;20254;-54
2024/01/29 07:47:40;;;;;;;10.13;5.30;;;;;;;3.90;92.73;63329.50;5055516;28;20204;-55
2024/01/29 07:50:06;;;;;;;9.70;5.90;;;;;;;3.94;92.41;63336.34;5073855;28;20199;-57
2024/01/29 07:52:32;;;;;;;11.67;5.70;;;;;;;4.01;92.41;63344.50;5072139;28;20213;-58
2024/01/29 07:54:57;;;;;;;7.97;5.90;;;;;;;4.10;89.95;63351.25;5073502;28;20188;-58
2024/01/29 07:57:24;;;;;;;11.80;5.50;;;;;;;4.08;88.61;63349.06;5073230;28;20770;-57
2024/01/29 07:59:50;;;;;;;9.03;5.00;;;;;;;3.88;86.79;63329.84;5073674;28;20199;-59
2024/01/29 08:02:16;;;;;;;11.07;4.93;;;;;;;4.04;84.86;63344.72;5055130;28;20226;-58
2024/01/29 08:04:42;;;;;;;8.27;4.83;;;;;;;4.14;84.50;63358.09;5055518;28;20591;-60
2024/01/29 08:07:07;;;;;;;9.73;4.77;;;;;;;4.21;82.16;63360.72;5055451;28;20810;-60
2024/01/29 08:09:33;;;;;;;7.03;4.27;;;;;;;4.24;77.78;63369.50;5073281;28;20225;-59
2024/01/29 08:11:58;;;;;;;10.47;5.37;;;;;;;4.00;82.89;63342.88;5073257;28;20212;-59
2024/01/29 08:14:24;;;;;;;9.63;5.63;;;;;;;4.24;81.28;63369.50;5074023;28;20192;-59
2024/01/29 08:16:49;;;;;;;8.53;5.03;;;;;;;4.11;80.62;63354.81;5073203;28;20264;-59
2024/01/29 08:19:15;;;;;;;12.43;6.07;;;;;;;4.50;80.69;63394.75;5055119;28;20236;-59
2024/01/29 08:21:40;;;;;;;11.20;5.50;;;;;;;4.59;77.42;63403.97;5072951;28;20243;-59
2024/01/29 08:24:06;;;;;;;11.13;6.23;;;;;;;4.69;75.53;63417.91;5054947;28;20227;-58
2024/01/29 08:26:32;;;;;;;13.30;5.53;;;;;;;4.87;74.95;63434.44;5054865;28;20555;-58
2024/01/29 08:28:59;;;;;;;10.90;5.00;;;;;;;4.82;74.93;63429.56;5054993;28;20291;-61
2024/01/29 08:31:25;;;;;;;5.70;4.30;;;;;;;4.98;71.76;63446.41;5072907;28;20218;-58
2024/01/29 08:33:52;;;;;;;6.10;3.57;;;;;;;4.90;69.35;63438.25;5072686;28;20211;-58
2024/01/29 08:36:20;;;;;;;6.57;3.17;;;;;;;4.90;71.65;63438.25;5072795;28;20200;-59
2024/01/29 08:38:46;;;;;;;5.37;2.60;;;;;;;4.68;69.55;63413.78;5072721;28;20283;-57
2024/01/29 08:41:13;;;;;;;4.70;2.20;;;;;;;4.73;69.09;63424.19;5072868;28;20196;-58
2024/01/29 08:43:39;;;;;;;5.70;1.80;;;;;;;4.53;67.56;63398.00;5072434;28;20211;-60
2024/01/29 08:46:06;;;;;;;2.10;1.90;;;;;;;4.69;68.86;63417.34;5072485;28;20217;-54
2024/01/29 08:48:32;;;;;;;4.97;2.77;;;;;;;4.71;68.10;63420.06;5072505;28;20709;-59
2024/01/29 08:50:58;;;;;;;4.07;2.87;;;;;;;4.87;68.66;63434.44;5072958;28;20191;-57
2024/01/29 08:53:25;;;;;;;5.43;2.83;;;;;;;4.56;68.92;63403.78;5072416;28;20375;-58
2024/01/29 08:55:51;;;;;;;4.23;2.43;;;;;;;4.60;66.98;63405.63;5071936;28;20196;-58
2024/01/29 08:58:16;;;;;;;3.17;2.47;;;;;;;4.67;67.33;63415.72;5072594;28;20204;-56
2024/01/29 09:00:42;;;;;;;6.83;2.70;;;;;;;4.70;67.77;63416.50;5072307;28;20196;-57
2024/01/29 09:03:09;;;;;;;3.70;2.60;;;;;;;4.67;68.43;63415.72;5054808;28;20212;-56
2024/01/29 09:05:35;;;;;;;5.47;2.87;;;;;;;4.77;66.98;63426.06;5072314;28;20207;-61
2024/01/29 09:08:01;;;;;;;3.40;2.57;;;;;;;5.01;64.77;63450.22;5072315;28;20209;-60
2024/01/29 09:10:26;;;;;;;4.63;2.80;;;;;;;4.69;64.84;63417.34;5072890;28;20195;-58
2024/01/29 09:12:52;;;;;;;10.60;2.60;;;;;;;4.65;66.51;63413.00;5072217;28;20216;-58
2024/01/29 09:15:18;;;;;;;6.00;3.20;;;;;;;4.70;67.96;63416.50;5072328;28;20211;-59
2024/01/29 09:17:44;;;;;;;3.90;2.83;;;;;;;4.89;67.78;63437.16;5072112;28;20213;-60
2024/01/29 09:20:12;;;;;;;8.10;3.70;;;;;;;4.86;66.38;63433.91;5072454;28;20270;-60
2024/01/29 09:22:37;;;;;;;5.13;3.10;;;;;;;5.05;65.88;63452.06;5072240;28;20215;-60
2024/01/29 09:25:04;;;;;;;5.93;2.70;;;;;;;5.20;64.56;63470.38;5072029;28;20250;-60
2024/01/29 09:27:31;;;;;;;5.53;3.13;;;;;;;5.06;65.85;63455.69;5071890;28;20208;-60
2024/01/29 09:29:57;;;;;;;6.73;3.13;;;;;;;4.78;66.51;63427.69;5061345;22;20246;-59
2024/01/29 09:32:23;;;;;;;6.20;2.93;;;;;;;4.69;65.27;63414.84;5072043;28;20217;-60
2024/01/29 09:34:49;;;;;;;7.77;3.27;;;;;;;4.92;63.84;63439.88;5071791;28;20192;-58
2024/01/29 09:37:18;;;;;;;8.60;3.50;;;;;;;5.18;63.20;63467.63;5071701;28;20207;-58
2024/01/29 09:39:44;;;;;;;3.27;2.33;;;;;;;5.22;61.88;63472.00;5054052;28;20204;-58
2024/01/29 09:42:17;;;;;;;6.30;2.80;;;;;;;5.07;65.60;63458.69;5071947;28;20215;-59
2024/01/29 09:44:45;;;;;;;7.47;2.63;;;;;;;4.99;66.27;63450.53;5037345;28;20246;-62
2024/01/29 09:47:13;;;;;;;4.50;2.70;;;;;;;5.21;63.58;63473.41;5053789;28;20212;-59
2024/01/29 09:49:39;;;;;;;6.23;2.57;;;;;;;5.19;62.89;63469.28;5071993;28;20284;-55
2024/01/29 09:52:09;;;;;;;7.57;2.60;;;;;;;5.33;62.61;63483.97;5071535;28;20299;-55
2024/01/29 09:54:36;;;;;;;4.33;2.20;;;;;;;5.21;64.33;63473.97;5071538;28;20761;-55
2024/01/29 09:57:03;;;;;;;4.50;2.83;;;;;;;5.05;64.75;63454.56;5071544;28;20204;-56
2024/01/29 09:59:28;;;;;;;3.37;2.30;;;;;;;5.42;63.48;63493.75;5071918;28;20200;-55
2024/01/29 10:01:54;;;;;;;6.77;3.07;;;;;;;5.15;65.07;63466.88;5053514;28;20227;-59
2024/01/29 10:04:21;;;;;;;5.17;2.60;;;;;;;4.77;67.29;63423.56;5071697;28;20207;-60
2024/01/29 10:06:48;;;;;;;3.50;2.60;;;;;;;4.93;63.59;63444.00;5053509;28;20192;-59
2024/01/29 10:09:14;;;;;;;6.27;2.80;;;;;;;4.61;64.95;63409.19;5070589;28;20192;-60
2024/01/29 10:11:42;;;;;;;5.00;2.53;;;;;;;4.88;65.29;63438.59;5053771;28;20278;-61
2024/01/29 10:14:08;;;;;;;5.00;2.93;;;;;;;5.03;66.03;63451.84;5071533;28;20197;-60
2024/01/29 10:16:33;;;;;;;2.70;1.77;;;;;;;4.93;66.43;63441.53;5071324;28;20658;-55
2024/01/29 10:19:03;;;;;;;3.77;2.40;;;;;;;4.80;65.33;63429.31;5078862;22;20232;-56
2024/01/29 10:21:38;;;;;;;7.47;2.30;;;;;;;4.66;66.81;63412.16;5071317;28;20215;-57
2024/01/29 10:24:04;;;;;;;2.63;1.90;;;;;;;4.54;66.95;63399.09;5051326;28;20283;-59
2024/01/29 10:26:30;;;;;;;3.27;2.00;;;;;;;4.59;64.55;63403.97;5051125;28;20229;-58
2024/01/29 10:29:03;;;;;;;3.30;2.13;;;;;;;4.72;65.43;63418.13;5051340;28;20285;-60
2024/01/29 10:31:29;;;;;;;4.87;2.20;;;;;;;4.79;63.17;63428.22;5051204;28;20201;-59
2024/01/29 10:33:56;;;;;;;4.67;2.37;;;;;;;4.77;65.15;63424.09;5051503;28;20232;-56
2024/01/29 10:36:22;;;;;;;2.80;2.30;;;;;;;4.93;65.12;63441.53;5033195;28;20784;-55
2024/01/29 10:38:50;;;;;;;4.33;2.40;;;;;;;5.07;64.97;63459.25;5051234;28;20239;-56
2024/01/29 10:41:17;;;;;;;5.30;2.13;;;;;;;5.06;64.12;63455.69;5051099;28;20207;-55
2024/01/29 10:43:53;;;;;;;3.43;2.10;;;;;;;4.88;64.33;63435.53;5032998;28;20217;-58
2024/01/29 10:46:23;;;;;;;4.23;1.90;;;;;;;4.82;63.53;63432.06;5051000;28;20283;-57
2024/01/29 10:48:50;;;;;;;5.07;2.37;;;;;;;4.81;63.85;63427.91;5051264;28;20209;-57
2024/01/29 10:51:16;;;;;;;3.00;2.10;;;;;;;4.95;64.16;63445.63;5050982;28;20193;-59
2024/01/29 10:53:44;;;;;;;4.07;1.90;;;;;;;5.20;63.59;63467.31;5051079;28;20208;-57
2024/01/29 10:56:11;;;;;;;2.90;1.90;;;;;;;4.90;62.76;63440.75;5050715;28;20189;-59
2024/01/29 10:58:38;;;;;;;2.90;1.77;;;;;;;4.86;62.74;63436.41;5033025;28;20300;-60
2024/01/29 11:01:05;;;;;;;4.07;2.53;;;;;;;4.88;62.53;63438.03;5050708;28;20188;-59
2024/01/29 11:03:33;;;;;;;2.40;2.20;;;;;;;5.04;61.73;63455.44;5050554;28;20208;-59
2024/01/29 11:06:06;;;;;;;3.57;2.30;;;;;;;4.51;63.01;63392.78;5050447;28;20225;-58
2024/01/29 11:08:35;;;;;;;2.37;1.90;;;;;;;4.42;63.85;63386.03;5050662;28;20311;-61
2024/01/29 11:11:02;;;;;;;2.03;1.53;;;;;;;4.50;62.83;63394.19;5050423;28;20271;-59
2024/01/29 11:13:30;;;;;;;3.23;2.30;;;;;;;4.76;62.50;63425.53;5050802;28;20643;-58
2024/01/29 11:15:55;;;;;;;2.90;2.00;;;;;;;4.47;63.48;63391.47;5050315;28;20628;-57
2024/01/29 11:18:21;;;;;;;4.63;2.43;;;;;;;4.82;63.10;63429.56;5050737;28;20213;-56
2024/01/29 11:20:51;;;;;;;3.80;2.20;;;;;;;4.86;62.35;63433.38;5035501;28;20211;-59
2024/01/29 11:23:21;;;;;;;5.63;2.10;;;;;;;4.73;65.72;63421.69;5053865;28;20269;-60
2024/01/29 11:25:49;;;;;;;2.80;2.27;;;;;;;4.76;62.59;63425.53;5053768;28;20280;-64
2024/01/29 11:28:15;;;;;;;3.33;1.87;;;;;;;4.88;64.64;63436.09;5053878;28;20282;-59